createdAt,value
2022-08-12T00:00:14.866Z,100856.69
2022-08-12T00:02:03.865Z,100850.56
2022-08-12T00:03:20.779Z,100853.13
2022-08-12T00:04:42.325Z,100851.75
2022-08-12T00:06:05.046Z,100862.41
2022-08-12T00:07:30.129Z,100857.97
2022-08-12T00:08:53.477Z,100852.13
2022-08-12T00:10:14.429Z,100858.84
2022-08-12T00:11:41.443Z,100856.66
2022-08-12T00:13:02.408Z,100852.50
2022-08-12T00:14:25.784Z,100854.75
2022-08-12T00:15:48.293Z,100853.38
2022-08-12T00:17:12.028Z,100859.59
2022-08-12T00:18:33.336Z,100859.91
2022-08-12T00:19:54.374Z,100852.94
2022-08-12T00:21:15.583Z,100854.38
2022-08-12T00:22:38.163Z,100857.44
2022-08-12T00:24:01.123Z,100857.22
2022-08-12T00:26:00.365Z,100861.13
2022-08-12T00:27:06.161Z,100857.28
2022-08-12T00:28:26.966Z,100852.81
2022-08-12T00:29:48.371Z,100850.59
2022-08-12T00:31:09.922Z,100858.47
2022-08-12T00:32:35.021Z,100862.38
2022-08-12T00:33:57.284Z,100862.97
2022-08-12T00:35:19.795Z,100857.69
2022-08-12T00:36:53.912Z,100869.13
2022-08-12T00:38:15.256Z,100860.25
2022-08-12T00:39:36.410Z,100863.34
2022-08-12T00:40:59.021Z,100861.97
2022-08-12T00:42:11.604Z,100870.63
2022-08-12T00:43:17.375Z,100872.03
2022-08-12T00:44:24.489Z,100866.75
2022-08-12T00:45:47.809Z,100875.13
2022-08-12T00:46:55.906Z,100866.19
2022-08-12T00:47:58.164Z,100866.47
2022-08-12T00:49:02.106Z,100870.13
2022-08-12T00:50:05.570Z,100865.13
2022-08-12T00:51:09.653Z,100865.41
2022-08-12T00:52:14.046Z,100863.75
2022-08-12T00:53:19.227Z,100870.78
2022-08-12T00:54:21.547Z,100867.97
2022-08-12T00:55:23.743Z,100872.72
2022-08-12T00:56:28.673Z,100866.31
2022-08-12T00:57:35.870Z,100865.75
2022-08-12T00:58:45.666Z,100874.44
2022-08-12T00:59:53.009Z,100870.28
2022-08-12T01:01:08.576Z,100870.28
2022-08-12T01:02:15.470Z,100871.69
2022-08-12T01:03:20.234Z,100869.19
2022-08-12T01:04:43.965Z,100870.31
2022-08-12T01:06:11.184Z,100863.38
2022-08-12T01:07:36.722Z,100868.94
2022-08-12T01:08:58.932Z,100869.53
2022-08-12T01:10:32.715Z,100869.53
2022-08-12T01:11:36.467Z,100858.94
2022-08-12T01:12:41.726Z,100864.53
2022-08-12T01:13:47.690Z,100864.81
2022-08-12T01:14:51.282Z,100859.25
2022-08-12T01:15:56.051Z,100866.78
2022-08-12T01:16:59.799Z,100860.38
2022-08-12T01:18:05.552Z,100862.34
2022-08-12T01:19:15.239Z,100869.03
2022-08-12T01:20:41.297Z,100854.25
2022-08-12T01:22:02.588Z,100866.53
2022-08-12T01:23:31.886Z,100858.47
2022-08-12T01:24:53.329Z,100864.03
2022-08-12T01:25:57.634Z,100862.38
2022-08-12T01:27:07.952Z,100861.56
2022-08-12T01:28:14.510Z,100863.50
2022-08-12T01:29:23.273Z,100859.03
2022-08-12T01:30:31.263Z,100863.78
2022-08-12T01:31:37.001Z,100866.88
2022-08-12T01:32:42.483Z,100864.38
2022-08-12T01:33:59.823Z,100873.03
2022-08-12T01:35:17.582Z,100872.22
2022-08-12T01:36:25.857Z,100860.22
2022-08-12T01:37:30.698Z,100862.47
2022-08-12T01:40:33.931Z,100863.88
2022-08-12T01:41:19.374Z,100863.06
2022-08-12T01:42:22.474Z,100864.47
2022-08-12T01:43:25.791Z,100858.88
2022-08-12T01:44:30.935Z,100855.56
2022-08-12T01:45:43.137Z,100842.72
2022-08-12T01:46:51.990Z,100856.13
2022-08-12T01:48:26.131Z,100853.66
2022-08-12T01:50:25.129Z,100858.97
2022-08-12T01:52:21.217Z,100858.41
2022-08-12T01:53:13.510Z,100855.94
2022-08-12T01:54:20.449Z,100859.00
2022-08-12T01:55:30.996Z,100856.81
2022-08-12T01:56:43.948Z,100852.66
2022-08-12T01:57:58.359Z,100862.13
2022-08-12T01:59:25.995Z,100858.78
2022-08-12T02:00:35.961Z,100852.69
2022-08-12T02:01:50.349Z,100849.34
2022-08-12T02:03:22.896Z,100850.75
2022-08-12T02:05:01.679Z,100847.41
2022-08-12T02:06:32.308Z,100839.59
2022-08-12T02:08:03.027Z,100844.91
2022-08-12T02:09:27.584Z,100846.31
2022-08-12T02:11:13.900Z,100843.31
2022-08-12T02:12:32.623Z,100846.66
2022-08-12T02:13:58.448Z,100848.06
2022-08-12T02:15:23.708Z,100843.06
2022-08-12T02:16:47.835Z,100843.63
2022-08-12T02:17:59.862Z,100845.03
2022-08-12T02:19:23.071Z,100838.94
2022-08-12T02:20:52.651Z,100842.31
2022-08-12T02:22:04.914Z,100845.38
2022-08-12T02:23:10.403Z,100845.66
2022-08-12T02:24:18.728Z,100849.84
2022-08-12T02:25:37.017Z,100849.31
2022-08-12T02:26:43.240Z,100850.44
2022-08-12T02:27:50.630Z,100849.06
2022-08-12T02:28:53.448Z,100851.28
2022-08-12T02:29:59.253Z,100846.81
2022-08-12T02:31:05.417Z,100849.06
2022-08-12T02:32:08.661Z,100850.47
2022-08-12T02:33:14.489Z,100849.63
2022-08-12T02:34:17.830Z,100844.34
2022-08-12T02:35:25.976Z,100849.09
2022-08-12T02:36:35.282Z,100842.97
2022-08-12T02:37:39.943Z,100841.31
2022-08-12T02:38:43.953Z,100837.69
2022-08-12T02:39:50.039Z,100842.44
2022-08-12T02:40:55.075Z,100839.94
2022-08-12T02:42:03.005Z,100839.94
2022-08-12T02:43:27.649Z,100842.16
2022-08-12T02:44:35.907Z,100840.50
2022-08-12T02:45:56.788Z,100841.59
2022-08-12T02:47:04.235Z,100839.13
2022-08-12T02:48:10.624Z,100833.84
2022-08-12T02:49:35.602Z,100836.06
2022-08-12T02:50:44.945Z,100838.03
2022-08-12T02:51:47.752Z,100833.56
2022-08-12T02:52:52.426Z,100834.69
2022-08-12T02:54:04.342Z,100824.13
2022-08-12T02:55:34.255Z,100828.84
2022-08-12T02:56:41.924Z,100821.06
2022-08-12T02:57:53.470Z,100821.06
2022-08-12T02:58:56.380Z,100818.56
2022-08-12T03:00:02.644Z,100827.22
2022-08-12T03:01:11.794Z,100811.91
2022-08-12T03:02:20.247Z,100817.75
2022-08-12T03:03:27.281Z,100812.47
2022-08-12T03:04:43.490Z,100813.59
2022-08-12T03:05:59.390Z,100815.00
2022-08-12T03:07:55.880Z,100818.06
2022-08-12T03:08:57.443Z,100816.38
2022-08-12T03:10:13.032Z,100821.38
2022-08-12T03:11:37.716Z,100815.25
2022-08-12T03:12:49.476Z,100811.09
2022-08-12T03:13:58.113Z,100816.97
2022-08-12T03:15:04.974Z,100820.00
2022-08-12T03:16:08.656Z,100824.19
2022-08-12T03:17:29.068Z,100826.44
2022-08-12T03:18:35.234Z,100823.09
2022-08-12T03:20:09.977Z,100833.41
2022-08-12T03:21:08.913Z,100821.69
2022-08-12T03:22:14.673Z,100815.31
2022-08-12T03:23:29.723Z,100820.88
2022-08-12T03:24:34.041Z,100823.09
2022-08-12T03:25:41.391Z,100820.31
2022-08-12T03:26:47.384Z,100821.44
2022-08-12T03:27:58.305Z,100827.28
2022-08-12T03:29:06.701Z,100830.34
2022-08-12T03:30:11.119Z,100833.13
2022-08-12T03:31:13.416Z,100832.56
2022-08-12T03:32:36.099Z,100834.53
2022-08-12T03:34:02.220Z,100837.88
2022-08-12T03:35:07.941Z,100842.59
2022-08-12T03:36:11.504Z,100847.34
2022-08-12T03:37:15.590Z,100845.69
2022-08-12T03:38:19.821Z,100852.34
2022-08-12T03:39:41.521Z,100852.94
2022-08-12T03:41:25.560Z,100851.53
2022-08-12T03:42:30.887Z,100858.22
2022-08-12T03:43:57.400Z,100857.69
2022-08-12T03:45:51.636Z,100856.53
2022-08-12T03:47:59.532Z,100859.59
2022-08-12T03:49:20.785Z,100861.00
2022-08-12T03:50:44.087Z,100864.34
2022-08-12T03:52:07.823Z,100860.19
2022-08-12T03:53:29.510Z,100863.53
2022-08-12T03:54:50.339Z,100864.94
2022-08-12T03:56:11.865Z,100866.31
2022-08-12T03:57:32.583Z,100864.34
2022-08-12T03:58:55.654Z,100867.41
2022-08-12T04:00:24.047Z,100862.97
2022-08-12T04:01:27.158Z,100867.13
2022-08-12T04:02:33.982Z,100863.81
2022-08-12T04:03:52.826Z,100866.59
2022-08-12T04:04:56.293Z,100873.81
2022-08-12T04:06:04.668Z,100866.59
2022-08-12T04:07:11.903Z,100862.66
2022-08-12T04:08:14.771Z,100864.63
2022-08-12T04:09:19.845Z,100864.63
2022-08-12T04:10:22.267Z,100864.91
2022-08-12T04:11:47.200Z,100864.91
2022-08-12T04:13:19.195Z,100874.09
2022-08-12T04:14:21.539Z,100866.59
2022-08-12T04:15:27.967Z,100871.31
2022-08-12T04:16:30.296Z,100865.75
2022-08-12T04:17:33.435Z,100861.84
2022-08-12T04:18:36.247Z,100866.59
2022-08-12T04:19:38.681Z,100877.44
2022-08-12T04:20:44.388Z,100864.63
2022-08-12T04:22:01.893Z,100866.31
2022-08-12T04:23:07.483Z,100867.97
2022-08-12T04:24:13.165Z,100865.19
2022-08-12T04:25:15.553Z,100867.69
2022-08-12T04:26:18.451Z,100867.69
2022-08-12T04:27:20.733Z,100861.03
2022-08-12T04:28:28.057Z,100867.13
2022-08-12T04:30:29.231Z,100872.41
2022-08-12T04:30:52.493Z,100871.31
2022-08-12T04:31:56.102Z,100868.25
2022-08-12T04:33:05.838Z,100873.28
2022-08-12T04:34:10.565Z,100870.19
2022-08-12T04:35:12.751Z,100874.09
2022-08-12T04:36:17.665Z,100874.09
2022-08-12T04:37:19.983Z,100867.41
2022-08-12T04:38:25.441Z,100869.63
2022-08-12T04:39:28.262Z,100857.97
2022-08-12T04:40:33.035Z,100863.78
2022-08-12T04:41:58.464Z,100859.31
2022-08-12T04:43:07.209Z,100862.94
2022-08-12T04:44:31.919Z,100861.84
2022-08-12T04:45:39.200Z,100866.84
2022-08-12T04:46:41.859Z,100858.47
2022-08-12T04:47:47.649Z,100855.69
2022-08-12T04:48:51.411Z,100863.19
2022-08-12T04:49:53.640Z,100855.66
2022-08-12T04:50:56.102Z,100862.03
2022-08-12T04:51:59.744Z,100868.19
2022-08-12T04:53:02.617Z,100861.47
2022-08-12T04:54:05.394Z,100862.84
2022-08-12T04:55:09.324Z,100858.91
2022-08-12T04:56:11.925Z,100866.69
2022-08-12T04:57:14.333Z,100868.91
2022-08-12T04:58:29.947Z,100870.25
2022-08-12T04:59:47.888Z,100871.84
2022-08-12T05:01:00.275Z,100867.34
2022-08-12T05:02:02.684Z,100872.84
2022-08-12T05:03:11.765Z,100865.59
2022-08-12T05:04:15.698Z,100862.72
2022-08-12T05:05:26.775Z,100867.13
2022-08-12T05:06:31.549Z,100864.56
2022-08-12T05:07:34.263Z,100866.16
2022-08-12T05:08:48.690Z,100863.78
2022-08-12T05:10:00.204Z,100858.13
2022-08-12T05:11:09.151Z,100857.44
2022-08-12T05:12:11.448Z,100865.41
2022-08-12T05:13:16.774Z,100869.78
2022-08-12T05:14:18.976Z,100869.69
2022-08-12T05:15:29.236Z,100875.97
2022-08-12T05:16:34.105Z,100873.94
2022-08-12T05:17:41.063Z,100878.25
2022-08-12T05:18:45.959Z,100872.53
2022-08-12T05:19:50.098Z,100871.28
2022-08-12T05:20:52.377Z,100868.66
2022-08-12T05:21:54.568Z,100872.16
2022-08-12T05:23:12.934Z,100878.97
2022-08-12T05:24:15.800Z,100872.91
2022-08-12T05:25:22.265Z,100868.28
2022-08-12T05:26:25.143Z,100872.06
2022-08-12T05:27:27.350Z,100870.78
2022-08-12T05:28:30.485Z,100872.25
2022-08-12T05:30:07.423Z,100867.63
2022-08-12T05:30:56.367Z,100875.25
2022-08-12T05:31:58.673Z,100872.88
2022-08-12T05:33:05.724Z,100873.84
2022-08-12T05:34:07.939Z,100875.31
2022-08-12T05:35:10.610Z,100881.03
2022-08-12T05:36:15.060Z,100883.63
2022-08-12T05:37:23.635Z,100884.56
2022-08-12T05:38:44.598Z,100881.28
2022-08-12T05:39:48.500Z,100884.69
2022-08-12T05:40:51.257Z,100880.03
2022-08-12T05:41:55.983Z,100884.56
2022-08-12T05:42:58.276Z,100885.00
2022-08-12T05:44:03.131Z,100876.63
2022-08-12T05:45:06.904Z,100881.19
2022-08-12T05:46:09.087Z,100877.63
2022-08-12T05:47:15.265Z,100888.66
2022-08-12T05:48:18.274Z,100885.72
2022-08-12T05:49:20.479Z,100884.13
2022-08-12T05:50:22.752Z,100887.84
2022-08-12T05:51:39.588Z,100885.94
2022-08-12T05:52:44.150Z,100883.50
2022-08-12T05:53:46.622Z,100890.84
2022-08-12T05:54:57.622Z,100885.28
2022-08-12T05:56:00.296Z,100886.16
2022-08-12T05:57:03.528Z,100893.00
2022-08-12T05:58:06.136Z,100889.41
2022-08-12T05:59:11.440Z,100893.94
2022-08-12T06:00:16.456Z,100884.72
2022-08-12T06:02:12.011Z,100887.22
2022-08-12T06:02:49.139Z,100888.28
2022-08-12T06:03:55.505Z,100891.28
2022-08-12T06:05:00.455Z,100891.84
2022-08-12T06:06:03.565Z,100885.94
2022-08-12T06:08:00.102Z,100887.91
2022-08-12T06:08:31.450Z,100891.41
2022-08-12T06:09:33.674Z,100890.75
2022-08-12T06:10:37.319Z,100890.09
2022-08-12T06:11:53.619Z,100890.31
2022-08-12T06:13:06.510Z,100889.81
2022-08-12T06:14:11.929Z,100884.31
2022-08-12T06:15:14.807Z,100892.91
2022-08-12T06:16:22.078Z,100886.59
2022-08-12T06:17:24.324Z,100886.72
2022-08-12T06:18:29.719Z,100900.13
2022-08-12T06:20:26.973Z,100888.97
2022-08-12T06:21:01.858Z,100887.22
2022-08-12T06:22:07.101Z,100896.97
2022-08-12T06:23:10.793Z,100892.59
2022-08-12T06:24:14.180Z,100895.53
2022-08-12T06:25:22.073Z,100900.44
2022-08-12T06:26:24.539Z,100897.72
2022-08-12T06:27:26.723Z,100902.13
2022-08-12T06:28:30.650Z,100895.75
2022-08-12T06:30:08.552Z,100900.66
2022-08-12T06:31:24.690Z,100907.66
2022-08-12T06:32:27.549Z,100903.69
2022-08-12T06:34:00.473Z,100902.94
2022-08-12T06:35:25.937Z,100906.59
2022-08-12T06:36:23.819Z,100895.00
2022-08-12T06:37:26.223Z,100897.03
2022-08-12T06:38:31.438Z,100901.44
2022-08-12T06:39:36.540Z,100891.63
2022-08-12T06:40:59.092Z,100899.31
2022-08-12T06:42:36.674Z,100902.63
2022-08-12T06:44:06.306Z,100909.59
2022-08-12T06:45:02.196Z,100903.91
2022-08-12T06:46:05.192Z,100904.72
2022-08-12T06:47:07.508Z,100903.06
2022-08-12T06:48:12.556Z,100909.91
2022-08-12T06:49:14.794Z,100911.88
2022-08-12T06:50:24.261Z,100908.97
2022-08-12T06:51:28.813Z,100902.44
2022-08-12T06:52:32.393Z,100898.72
2022-08-12T06:53:34.904Z,100900.72
2022-08-12T06:54:39.793Z,100909.50
2022-08-12T06:55:56.752Z,100897.25
2022-08-12T06:57:04.660Z,100908.50
2022-08-12T06:58:10.780Z,100903.13
2022-08-12T06:59:18.569Z,100912.03
2022-08-12T07:00:28.525Z,100902.97
2022-08-12T07:01:36.017Z,100902.84
2022-08-12T07:02:38.339Z,100898.25
2022-08-12T07:03:40.663Z,100902.19
2022-08-12T07:04:43.513Z,100893.94
2022-08-12T07:05:45.891Z,100897.84
2022-08-12T07:06:49.504Z,100897.25
2022-08-12T07:08:05.099Z,100894.72
2022-08-12T07:09:16.391Z,100888.41
2022-08-12T07:10:59.245Z,100889.19
2022-08-12T07:12:01.574Z,100904.06
2022-08-12T07:13:09.515Z,100902.25
2022-08-12T07:14:13.495Z,100899.59
2022-08-12T07:15:17.937Z,100905.91
2022-08-12T07:16:21.639Z,100893.06
2022-08-12T07:17:23.838Z,100889.94
2022-08-12T07:18:31.489Z,100903.13
2022-08-12T07:19:40.381Z,100897.91
2022-08-12T07:20:53.296Z,100899.63
2022-08-12T07:22:06.460Z,100903.28
2022-08-12T07:23:08.922Z,100905.25
2022-08-12T07:24:14.740Z,100902.81
2022-08-12T07:25:37.864Z,100908.84
2022-08-12T07:26:44.874Z,100899.81
2022-08-12T07:27:57.289Z,100901.34
2022-08-12T07:29:02.716Z,100909.38
2022-08-12T07:30:14.617Z,100901.91
2022-08-12T07:31:18.445Z,100907.81
2022-08-12T07:32:29.584Z,100906.41
2022-08-12T07:33:33.067Z,100905.03
2022-08-12T07:34:37.512Z,100911.31
2022-08-12T07:35:48.272Z,100905.34
2022-08-12T07:36:51.350Z,100908.69
2022-08-12T07:37:57.275Z,100904.34
2022-08-12T07:38:59.618Z,100911.38
2022-08-12T07:40:02.290Z,100908.22
2022-08-12T07:41:14.487Z,100913.97
2022-08-12T07:43:40.278Z,100911.66
2022-08-12T07:44:44.011Z,100907.28
2022-08-12T07:45:50.369Z,100910.16
2022-08-12T07:46:53.213Z,100916.75
2022-08-12T07:47:55.455Z,100913.66
2022-08-12T07:49:01.833Z,100917.00
2022-08-12T07:50:09.386Z,100912.25
2022-08-12T07:51:24.750Z,100912.41
2022-08-12T07:52:30.473Z,100907.94
2022-08-12T07:53:33.487Z,100903.66
2022-08-12T07:54:57.491Z,100913.47
2022-08-12T07:55:59.706Z,100914.47
2022-08-12T07:57:01.877Z,100913.78
2022-08-12T07:58:04.482Z,100907.88
2022-08-12T07:59:08.717Z,100903.63
2022-08-12T08:00:11.824Z,100908.34
2022-08-12T08:01:17.686Z,100902.56
2022-08-12T08:02:19.962Z,100905.66
2022-08-12T08:03:30.027Z,100906.38
2022-08-12T08:04:53.660Z,100898.94
2022-08-12T08:05:57.168Z,100902.97
2022-08-12T08:07:04.492Z,100902.97
2022-08-12T08:08:18.454Z,100897.31
2022-08-12T08:09:25.585Z,100903.91
2022-08-12T08:10:31.094Z,100904.34
2022-08-12T08:11:51.821Z,100899.16
2022-08-12T08:12:54.200Z,100900.59
2022-08-12T08:13:56.378Z,100897.50
2022-08-12T08:15:01.250Z,100893.25
2022-08-12T08:16:05.869Z,100891.00
2022-08-12T08:17:10.539Z,100896.53
2022-08-12T08:18:26.434Z,100906.03
2022-08-12T08:19:31.278Z,100903.44
2022-08-12T08:20:38.025Z,100893.13
2022-08-12T08:21:40.206Z,100890.03
2022-08-12T08:22:43.214Z,100891.06
2022-08-12T08:24:05.403Z,100893.28
2022-08-12T08:25:34.861Z,100888.63
2022-08-12T08:26:30.535Z,100886.44
2022-08-12T08:27:45.783Z,100886.72
2022-08-12T08:28:48.673Z,100890.94
2022-08-12T08:29:51.225Z,100889.50
2022-08-12T08:30:54.113Z,100886.38
2022-08-12T08:32:00.131Z,100877.66
2022-08-12T08:33:02.436Z,100888.06
2022-08-12T08:34:33.454Z,100890.72
2022-08-12T08:35:47.126Z,100883.63
2022-08-12T08:36:52.656Z,100893.25
2022-08-12T08:38:10.499Z,100885.78
2022-08-12T08:39:23.594Z,100885.94
2022-08-12T08:40:47.190Z,100881.28
2022-08-12T08:42:14.108Z,100889.22
2022-08-12T08:43:20.380Z,100880.50
2022-08-12T08:44:22.725Z,100881.00
2022-08-12T08:45:32.417Z,100877.50
2022-08-12T08:46:38.372Z,100872.78
2022-08-12T08:47:49.225Z,100880.25
2022-08-12T08:48:51.833Z,100869.44
2022-08-12T08:50:01.195Z,100867.50
2022-08-12T08:51:05.672Z,100867.28
2022-08-12T08:52:11.328Z,100869.84
2022-08-12T08:53:16.383Z,100872.00
2022-08-12T08:54:18.620Z,100861.59
2022-08-12T08:55:27.528Z,100860.16
2022-08-12T08:56:44.485Z,100864.41
2022-08-12T08:57:50.289Z,100875.13
2022-08-12T08:58:52.644Z,100853.66
2022-08-12T08:59:55.511Z,100859.88
2022-08-12T09:00:57.748Z,100846.13
2022-08-12T09:02:00.845Z,100851.09
2022-08-12T09:03:04.281Z,100845.53
2022-08-12T09:05:13.105Z,100852.97
2022-08-12T09:06:02.894Z,100837.25
2022-08-12T09:07:16.998Z,100849.13
2022-08-12T09:08:27.940Z,100846.81
2022-08-12T09:09:34.142Z,100842.03
2022-08-12T09:11:01.017Z,100845.81
2022-08-12T09:12:27.474Z,100843.88
2022-08-12T09:14:11.388Z,100837.88
2022-08-12T09:14:55.074Z,100852.31
2022-08-12T09:15:59.588Z,100845.44
2022-08-12T09:17:05.469Z,100845.97
2022-08-12T09:18:09.533Z,100827.28
2022-08-12T09:19:27.292Z,100843.28
2022-08-12T09:20:33.726Z,100832.78
2022-08-12T09:23:01.297Z,100834.19
2022-08-12T09:24:10.618Z,100844.03
2022-08-12T09:25:25.344Z,100844.09
2022-08-12T09:26:29.232Z,100844.19
2022-08-12T09:28:15.521Z,100843.44
2022-08-12T09:28:55.851Z,100831.25
2022-08-12T09:30:09.908Z,100841.09
2022-08-12T09:32:06.694Z,100844.44
2022-08-12T09:33:04.492Z,100828.53
2022-08-12T09:34:31.765Z,100836.31
2022-08-12T09:35:33.788Z,100829.78
2022-08-12T09:37:01.040Z,100821.19
2022-08-12T09:38:04.496Z,100846.81
2022-08-12T09:40:03.518Z,100840.63
2022-08-12T09:40:55.823Z,100841.38
2022-08-12T09:42:39.184Z,100840.94
2022-08-12T09:44:05.897Z,100840.00
2022-08-12T09:46:07.041Z,100835.38
2022-08-12T09:46:46.497Z,100837.22
2022-08-12T09:47:59.306Z,100833.88
2022-08-12T09:49:04.131Z,100825.50
2022-08-12T09:50:20.612Z,100831.09
2022-08-12T09:51:23.562Z,100824.84
2022-08-12T09:52:31.822Z,100823.81
2022-08-12T09:54:08.412Z,100831.75
2022-08-12T09:56:05.579Z,100823.03
2022-08-12T09:57:00.130Z,100825.69
2022-08-12T09:58:46.212Z,100832.03
2022-08-12T10:00:17.091Z,100822.91
2022-08-12T10:00:52.013Z,100817.09
2022-08-12T10:02:45.560Z,100843.81
2022-08-12T10:03:32.161Z,100831.47
2022-08-12T10:04:37.479Z,100839.47
2022-08-12T10:06:26.649Z,100833.66
2022-08-12T10:07:25.108Z,100810.38
2022-08-12T10:08:32.572Z,100829.78
2022-08-12T10:09:58.155Z,100829.31
2022-08-12T10:11:20.966Z,100821.09
2022-08-12T10:13:07.219Z,100814.13
2022-08-12T10:14:07.150Z,100827.31
2022-08-12T10:16:01.944Z,100813.03
2022-08-12T10:16:46.710Z,100807.25
2022-08-12T10:17:56.645Z,100815.31
2022-08-12T10:19:17.117Z,100806.72
2022-08-12T10:20:20.081Z,100801.81
2022-08-12T10:21:36.071Z,100816.00
2022-08-12T10:22:44.845Z,100806.91
2022-08-12T10:23:57.063Z,100793.97
2022-08-12T10:25:18.297Z,100838.16
2022-08-12T10:26:40.342Z,100795.47
2022-08-12T10:28:04.899Z,100803.53
2022-08-12T10:30:03.290Z,100799.38
2022-08-12T10:30:59.222Z,100799.19
2022-08-12T10:32:21.849Z,100796.75
2022-08-12T10:33:31.181Z,100786.50
2022-08-12T10:34:34.509Z,100788.91
2022-08-12T10:35:38.579Z,100794.56
2022-08-12T10:36:43.186Z,100785.59
2022-08-12T10:38:34.720Z,100783.94
2022-08-12T10:40:01.501Z,100764.81
2022-08-12T10:40:57.850Z,100783.91
2022-08-12T10:42:29.287Z,100775.41
2022-08-12T10:43:56.551Z,100777.06
2022-08-12T10:45:09.204Z,100768.94
2022-08-12T10:46:19.173Z,100768.84
2022-08-12T10:47:26.009Z,100777.75
2022-08-12T10:49:05.641Z,100784.97
2022-08-12T10:50:29.676Z,100774.38
2022-08-12T10:52:04.229Z,100784.88
2022-08-12T10:53:08.761Z,100780.78
2022-08-12T10:54:14.574Z,100778.31
2022-08-12T10:55:19.037Z,100777.84
2022-08-12T10:56:22.331Z,100770.84
2022-08-12T10:58:13.207Z,100764.28
2022-08-12T10:58:49.331Z,100763.03
2022-08-12T11:00:31.778Z,100778.81
2022-08-12T11:03:01.597Z,100769.09
2022-08-12T11:04:28.004Z,100769.03
2022-08-12T11:04:34.360Z,100777.19
2022-08-12T11:07:02.992Z,100770.16
2022-08-12T11:07:10.113Z,100775.91
2022-08-12T11:08:38.249Z,100781.34
2022-08-12T11:09:54.314Z,100765.50
2022-08-12T11:11:06.274Z,100766.25
2022-08-12T11:12:54.890Z,100759.75
2022-08-12T11:13:46.936Z,100764.53
2022-08-12T11:14:52.313Z,100749.13
2022-08-12T11:16:03.368Z,100749.97
2022-08-12T11:17:43.301Z,100741.44
2022-08-12T11:18:40.939Z,100757.63
2022-08-12T11:19:44.026Z,100754.00
2022-08-12T11:20:48.851Z,100750.69
2022-08-12T11:21:58.423Z,100749.50
2022-08-12T11:23:24.940Z,100745.84
2022-08-12T11:24:30.633Z,100746.22
2022-08-12T11:25:42.317Z,100745.84
2022-08-12T11:26:58.482Z,100750.25
2022-08-12T11:28:01.494Z,100735.22
2022-08-12T11:29:06.098Z,100743.31
2022-08-12T11:30:31.649Z,100750.53
2022-08-12T11:31:52.657Z,100752.53
2022-08-12T11:33:11.643Z,100744.75
2022-08-12T11:34:52.798Z,100741.44
2022-08-12T11:35:43.782Z,100737.72
2022-08-12T11:36:56.643Z,100742.09
2022-08-12T11:38:01.887Z,100740.38
2022-08-12T11:39:05.321Z,100737.47
2022-08-12T11:41:11.447Z,100736.09
2022-08-12T11:42:14.201Z,100738.50
2022-08-12T11:43:18.912Z,100736.00
2022-08-12T11:44:36.687Z,100738.41
2022-08-12T11:45:53.314Z,100734.28
2022-08-12T11:46:59.130Z,100734.66
2022-08-12T11:48:02.155Z,100734.09
2022-08-12T11:49:07.989Z,100738.97
2022-08-12T11:50:11.745Z,100736.88
2022-08-12T11:51:22.172Z,100732.28
2022-08-12T11:52:54.875Z,100735.94
2022-08-12T11:53:58.886Z,100733.03
2022-08-12T11:55:01.977Z,100731.00
2022-08-12T11:56:06.833Z,100735.41
2022-08-12T11:58:01.170Z,100728.91
2022-08-12T11:59:57.468Z,100719.13
2022-08-12T12:02:02.376Z,100725.50
2022-08-12T12:02:47.479Z,100722.34
2022-08-12T12:03:49.987Z,100721.03
2022-08-12T12:04:53.869Z,100726.22
2022-08-12T12:05:56.248Z,100720.56
2022-08-12T12:07:07.055Z,100713.25
2022-08-12T12:08:38.416Z,100718.38
2022-08-12T12:09:53.605Z,100708.22
2022-08-12T12:10:56.384Z,100707.03
2022-08-12T12:12:00.959Z,100711.53
2022-08-12T12:13:03.707Z,100704.63
2022-08-12T12:14:14.082Z,100698.16
2022-08-12T12:15:24.864Z,100713.16
2022-08-12T12:16:29.629Z,100715.97
2022-08-12T12:17:38.798Z,100710.31
2022-08-12T12:18:41.079Z,100704.63
2022-08-12T12:19:46.132Z,100705.84
2022-08-12T12:20:49.475Z,100705.47
2022-08-12T12:21:51.667Z,100702.53
2022-08-12T12:22:53.865Z,100700.91
2022-08-12T12:24:00.768Z,100713.50
2022-08-12T12:25:12.964Z,100706.66
2022-08-12T12:26:35.050Z,100701.38
2022-08-12T12:28:04.727Z,100713.50
2022-08-12T12:30:13.602Z,100701.38
2022-08-12T12:30:34.945Z,100705.00
2022-08-12T12:32:06.933Z,100709.03
2022-08-12T12:32:59.738Z,100701.75
2022-08-12T12:34:01.939Z,100702.91
2022-08-12T12:35:14.686Z,100704.09
2022-08-12T12:36:30.925Z,100698.00
2022-08-12T12:38:03.667Z,100693.88
2022-08-12T12:38:55.674Z,100694.59
2022-08-12T12:39:58.734Z,100691.75
2022-08-12T12:41:16.278Z,100690.94
2022-08-12T12:42:42.553Z,100686.94
2022-08-12T12:44:04.111Z,100686.09
2022-08-12T12:45:19.134Z,100691.38
2022-08-12T12:46:25.216Z,100687.28
2022-08-12T12:47:30.158Z,100683.63
2022-08-12T12:48:32.770Z,100686.47
2022-08-12T12:49:35.048Z,100685.66
2022-08-12T12:50:45.638Z,100696.63
2022-08-12T12:52:18.400Z,100687.75
2022-08-12T12:54:07.949Z,100677.22
2022-08-12T12:55:00.815Z,100682.44
2022-08-12T12:56:03.720Z,100684.44
2022-08-12T12:57:06.521Z,100684.81
2022-08-12T12:58:14.293Z,100676.31
2022-08-12T12:59:55.993Z,100683.63
2022-08-12T13:00:50.100Z,100677.50
2022-08-12T13:01:53.617Z,100679.59
2022-08-12T13:02:57.017Z,100686.47
2022-08-12T13:04:02.237Z,100671.09
2022-08-12T13:05:13.943Z,100665.06
2022-08-12T13:06:19.120Z,100667.91
2022-08-12T13:07:54.251Z,100665.88
2022-08-12T13:08:49.505Z,100667.53
2022-08-12T13:09:51.709Z,100667.53
2022-08-12T13:10:58.658Z,100668.00
2022-08-12T13:12:10.429Z,100667.63
2022-08-12T13:14:07.475Z,100674.09
2022-08-12T13:14:35.268Z,100659.56
2022-08-12T13:15:43.886Z,100671.75
2022-08-12T13:16:50.158Z,100657.94
2022-08-12T13:18:03.149Z,100674.09
2022-08-12T13:19:07.676Z,100665.59
2022-08-12T13:20:12.799Z,100662.06
2022-08-12T13:21:36.794Z,100657.28
2022-08-12T13:22:46.018Z,100656.09
2022-08-12T13:23:50.518Z,100660.56
2022-08-12T13:24:57.713Z,100663.38
2022-08-12T13:26:00.496Z,100655.72
2022-08-12T13:27:05.496Z,100654.97
2022-08-12T13:28:09.790Z,100668.34
2022-08-12T13:29:15.358Z,100653.69
2022-08-12T13:30:23.730Z,100650.50
2022-08-12T13:31:27.138Z,100643.63
2022-08-12T13:32:30.875Z,100654.59
2022-08-12T13:34:32.053Z,100645.41
2022-08-12T13:35:04.703Z,100650.25
2022-08-12T13:36:21.134Z,100651.09
2022-08-12T13:37:26.699Z,100642.19
2022-08-12T13:38:52.230Z,100649.53
2022-08-12T13:39:56.973Z,100643.84
2022-08-12T13:40:59.173Z,100644.66
2022-08-12T13:42:01.359Z,100640.63
2022-08-12T13:43:07.444Z,100641.81
2022-08-12T13:44:13.295Z,100644.28
2022-08-12T13:45:21.420Z,100639.09
2022-08-12T13:46:25.612Z,100630.19